Claremont, CA

4:47 AM PST on December 22, 2014 (GMT -0800)
Claremont North of Baseline | Change Station
CLOSE
Current Station
Personal Weather Station
Location: Claremont, CA
Elevation: 1531 ft
Nearby Weather Stations

Elev 1531 ft 34.13 °N, 117.71 °W | Updated 2 minutes ago

Clear
Clear
46.8 °F
Feels Like 47 °F
N
0.0
Wind Variable Wind from SE
Gusts 0.0 mph

Today
High -- | Low -- °F
--% Chance of Precip.
Yesterday
High -- | Low -- °F
Precip. -- in
6:53 AM 4:45 PM
New Moon, 0% visible
Pressure 30.03 in
Visibility 5.0 miles
Clouds Scattered Clouds 25000 ft
Windchill 47 °F
Dew Point 43 °F
Humidity 88%
Rainfall 0.00 in
Snow Depth Not available.
UV 0 out of 12
Pollen 5.20 out of 12
Air Quality Not available.
Flu Activity Not available.
METAR KONT 221153Z VRB03KT 5SM HZ SCT250 09/06 A3004 RMK AO2 SLP168 T00890061 10133 20089 56003

More Conditions Fewer Conditions

Pressure 30.03 in
Visibility 5.0 miles
Clouds Scattered Clouds 25000 ft
Windchill 47 °F
Dew Point 43 °F
Humidity 88%
Rainfall 0.00 in
Snow Depth Not available.
UV 0 out of 12
Pollen 5.20 out of 12
Air Quality Not available.
Flu Activity Not available.
METAR KONT 221153Z VRB03KT 5SM HZ SCT250 09/06 A3004 RMK AO2 SLP168 T00890061 10133 20089 56003

More Conditions Fewer Conditions

10-Day Weather Forecast

Almanac

Astronomy

Dec. 22, 2014 Rise Set
Actual Time
Civil Twilight
Nautical Twilight
Astronomical Twilight
Moon
Length of Visible Light
Length of Day
Tomorrow will be .
, % of the Moon is Illuminated

Today's Extremes

State Highs State Lows

Community

WunderPhotos

Upload Photos

1,779,598 photos uploaded!

WunderBlogs® & News

Nearby

Air Quality

  Air Quality AQ Index Pollutant
Not available.

Snow Depth

Station Depth Elevation

Earthquake Activity

City Distance Mag. Time & Date
Minimum magnitude displayed is 2.5.

Coastal Water Temperatures

Place Temperature

Nearby Weather Stations